Time;durP1;ratioP1;P1;durP2;ratioP2;P2;SDS_P1;SDS_P2;PMS_P1;PMS_P2;Temp;Humidity;BMP_temperature;BMP_pressure;BME280_temperature;BME280_humidity;BME280_pressure;Samples;Min_cycle;Max_cycle;Signal;HPM_P1;HPM_P2
2023/08/05 00:01:15;;;;;;;3.55;2.55;;;20.60;1.00;;;;;;5034282;28;20033;-74
2023/08/05 00:03:41;;;;;;;5.85;3.13;;;20.40;1.00;;;;;;5034223;28;20476;-73
2023/08/05 00:06:08;;;;;;;2.60;2.35;;;20.50;1.00;;;;;;5036362;28;20545;-73
2023/08/05 00:08:33;;;;;;;4.85;2.83;;;20.30;1.00;;;;;;5035524;28;20033;-76
2023/08/05 00:11:01;;;;;;;4.82;2.58;;;20.20;1.00;;;;;;5036365;28;20375;-74
2023/08/05 00:13:27;;;;;;;4.10;2.30;;;20.30;1.00;;;;;;5033485;28;20025;-74
2023/08/05 00:15:53;;;;;;;4.82;2.28;;;20.20;1.00;;;;;;5035948;28;20032;-76
2023/08/05 00:18:18;;;;;;;6.07;2.15;;;20.20;1.00;;;;;;5035949;28;20037;-75
2023/08/05 00:20:44;;;;;;;5.03;2.33;;;20.40;1.00;;;;;;5033027;28;20041;-75
2023/08/05 00:23:10;;;;;;;3.22;2.00;;;20.40;1.00;;;;;;5036230;28;20018;-74
2023/08/05 00:25:35;;;;;;;5.75;2.22;;;20.30;1.00;;;;;;5035039;28;20080;-74
2023/08/05 00:28:01;;;;;;;5.47;2.50;;;20.30;1.00;;;;;;5033286;28;20056;-74
2023/08/05 00:30:27;;;;;;;2.47;1.92;;;20.30;1.00;;;;;;5032087;28;20037;-75
2023/08/05 00:32:53;;;;;;;3.50;2.40;;;20.40;1.00;;;;;;5034843;28;20025;-74
2023/08/05 00:35:18;;;;;;;4.10;2.10;;;20.20;1.00;;;;;;5034473;28;20513;-74
2023/08/05 00:37:44;;;;;;;3.13;2.17;;;20.10;1.00;;;;;;5034492;28;20041;-74
2023/08/05 00:40:10;;;;;;;5.15;2.08;;;19.90;1.00;;;;;;5034907;28;20038;-74
2023/08/05 00:42:36;;;;;;;4.18;2.33;;;20.10;1.00;;;;;;5035896;28;20029;-73
2023/08/05 00:45:01;;;;;;;2.80;1.98;;;20.40;1.00;;;;;;5033596;28;20051;-75
2023/08/05 00:47:27;;;;;;;3.15;2.08;;;20.40;1.00;;;;;;5035470;28;20475;-73
2023/08/05 00:49:56;;;;;;;4.93;2.28;;;20.60;1.00;;;;;;5033048;28;20048;-73
2023/08/05 00:52:23;;;;;;;3.80;2.22;;;19.90;1.00;;;;;;5035835;28;20380;-74
2023/08/05 00:54:49;;;;;;;4.28;2.28;;;19.80;1.00;;;;;;5033746;28;20029;-74
2023/08/05 00:57:16;;;;;;;4.75;2.10;;;20.10;1.00;;;;;;5035376;28;20026;-74
2023/08/05 00:59:42;;;;;;;4.25;2.30;;;20.00;1.00;;;;;;5033748;28;20099;-73
2023/08/05 01:02:07;;;;;;;5.40;2.35;;;20.00;1.00;;;;;;5033702;28;20109;-74
2023/08/05 01:04:37;;;;;;;5.35;2.60;;;20.20;1.00;;;;;;5037683;28;20036;-74
2023/08/05 01:07:03;;;;;;;3.63;1.92;;;20.30;1.00;;;;;;5035673;28;20182;-73
2023/08/05 01:09:29;;;;;;;4.78;2.30;;;20.40;1.00;;;;;;5034454;28;20025;-73
2023/08/05 01:11:55;;;;;;;3.70;2.63;;;20.10;1.00;;;;;;5035394;28;20079;-73
2023/08/05 01:14:21;;;;;;;4.72;2.25;;;20.10;1.00;;;;;;5032180;28;20136;-73
2023/08/05 01:16:46;;;;;;;3.85;2.03;;;20.30;1.00;;;;;;5034419;28;20490;-73
2023/08/05 01:19:23;;;;;;;4.45;2.60;;;20.50;1.00;;;;;;5033526;28;20087;-73
2023/08/05 01:22:08;;;;;;;4.43;3.03;;;20.60;1.00;;;;;;5024570;28;20073;-73
2023/08/05 01:24:54;;;;;;;2.63;2.05;;;20.50;1.00;;;;;;5032570;28;20502;-73
2023/08/05 01:27:21;;;;;;;3.83;2.88;;;20.50;1.00;;;;;;5030181;28;20033;-73
2023/08/05 01:29:46;;;;;;;5.07;3.50;;;20.60;1.00;;;;;;5033997;28;20029;-73
2023/08/05 01:32:14;;;;;;;5.85;3.20;;;20.40;1.00;;;;;;5034280;28;20033;-73
2023/08/05 01:34:40;;;;;;;5.38;3.45;;;20.30;1.00;;;;;;5033038;28;20021;-73
2023/08/05 01:37:06;;;;;;;3.80;3.10;;;20.00;1.00;;;;;;5033134;28;20024;-73
2023/08/05 01:39:31;;;;;;;5.38;3.03;;;20.00;1.00;;;;;;5033071;28;20034;-73
2023/08/05 01:41:58;;;;;;;6.30;3.95;;;20.20;1.00;;;;;;5033788;28;20025;-73
2023/08/05 01:44:24;;;;;;;5.97;3.20;;;20.20;1.00;;;;;;5034239;28;20435;-72
2023/08/05 01:46:49;;;;;;;8.68;3.38;;;20.10;1.00;;;;;;5032061;28;20026;-73
2023/08/05 01:49:15;;;;;;;7.00;3.80;;;20.40;1.00;;;;;;5034234;28;20059;-73
2023/08/05 01:51:40;;;;;;;7.45;4.47;;;20.20;1.00;;;;;;5025859;28;20112;-73
2023/08/05 01:54:06;;;;;;;6.20;3.70;;;20.20;1.00;;;;;;5032024;28;20488;-72
2023/08/05 01:56:32;;;;;;;4.57;3.83;;;20.10;1.00;;;;;;5031906;28;20038;-73
2023/08/05 01:58:57;;;;;;;7.25;4.28;;;20.10;1.00;;;;;;5030960;28;20041;-73
2023/08/05 02:01:42;;;;;;;7.88;4.35;;;20.00;1.00;;;;;;5033942;28;20447;-73
2023/08/05 02:04:08;;;;;;;8.20;4.72;;;20.00;1.00;;;;;;5033300;28;20040;-73
2023/08/05 02:06:34;;;;;;;5.50;4.60;;;20.00;1.00;;;;;;5034276;28;20466;-73
2023/08/05 02:08:59;;;;;;;6.40;4.82;;;20.00;1.00;;;;;;5033292;28;20026;-73
2023/08/05 02:11:25;;;;;;;8.13;4.93;;;20.10;1.00;;;;;;5022352;28;20529;-73
2023/08/05 02:13:51;;;;;;;6.10;4.70;;;20.10;1.00;;;;;;5031219;28;20079;-73
2023/08/05 02:16:16;;;;;;;6.25;5.05;;;20.00;1.00;;;;;;5024799;28;20029;-72
2023/08/05 02:18:42;;;;;;;6.60;5.15;;;20.00;1.00;;;;;;5032981;28;20029;-73
2023/08/05 02:21:07;;;;;;;6.68;4.95;;;20.10;1.00;;;;;;5033477;28;20041;-73
2023/08/05 02:23:37;;;;;;;5.97;4.43;;;20.10;1.00;;;;;;5032360;28;20108;-73
2023/08/05 02:26:03;;;;;;;7.60;5.07;;;20.10;1.00;;;;;;5033020;28;20037;-73
2023/08/05 02:28:29;;;;;;;8.02;5.18;;;20.10;1.00;;;;;;5031964;28;20442;-72
2023/08/05 02:30:54;;;;;;;8.27;5.57;;;20.20;1.00;;;;;;5033542;28;20064;-72
2023/08/05 02:33:23;;;;;;;8.18;4.82;;;20.20;1.00;;;;;;5031865;28;20017;-72
2023/08/05 02:35:48;;;;;;;7.85;5.28;;;20.30;1.00;;;;;;5032236;28;20029;-72
2023/08/05 02:38:14;;;;;;;6.72;5.50;;;20.30;1.00;;;;;;5032262;28;20376;-72
2023/08/05 02:40:40;;;;;;;6.53;4.90;;;20.20;1.00;;;;;;5033021;28;20029;-73
2023/08/05 02:43:06;;;;;;;4.78;4.20;;;20.20;1.00;;;;;;5032173;28;20014;-73
2023/08/05 02:45:32;;;;;;;7.53;4.93;;;20.10;1.00;;;;;;5030334;28;20483;-72
2023/08/05 02:47:59;;;;;;;6.30;4.68;;;20.20;1.00;;;;;;5033163;28;20025;-73
2023/08/05 02:50:25;;;;;;;7.88;4.80;;;20.30;1.00;;;;;;5033306;28;20119;-72
2023/08/05 02:52:50;;;;;;;8.52;4.47;;;20.40;1.00;;;;;;5033118;28;20022;-71
2023/08/05 02:55:16;;;;;;;8.63;4.57;;;20.30;1.00;;;;;;5032497;28;20033;-72
2023/08/05 02:57:42;;;;;;;6.22;4.22;;;20.40;1.00;;;;;;5032150;28;20033;-72
2023/08/05 03:00:09;;;;;;;7.78;4.13;;;20.40;1.00;;;;;;5029056;28;20049;-72
2023/08/05 03:02:35;;;;;;;5.38;4.32;;;20.40;1.00;;;;;;5033281;28;20403;-72
2023/08/05 03:05:01;;;;;;;7.53;4.50;;;20.30;1.00;;;;;;5031276;28;20022;-71
2023/08/05 03:07:27;;;;;;;6.25;4.78;;;20.20;1.00;;;;;;5033244;28;20022;-72
2023/08/05 03:09:53;;;;;;;7.22;4.00;;;20.10;1.00;;;;;;5038897;28;20061;-72
2023/08/05 03:12:19;;;;;;;6.55;3.75;;;20.00;1.00;;;;;;5032989;28;20057;-72
2023/08/05 03:14:44;;;;;;;5.80;4.00;;;20.20;1.00;;;;;;5031934;28;20459;-73
2023/08/05 03:17:10;;;;;;;8.05;4.15;;;20.10;1.00;;;;;;5031936;28;20063;-71
2023/08/05 03:19:36;;;;;;;5.43;3.33;;;20.20;1.00;;;;;;5031210;28;20022;-71
2023/08/05 03:22:01;;;;;;;5.30;3.85;;;20.30;1.00;;;;;;5033104;28;20112;-71
2023/08/05 03:24:27;;;;;;;7.22;3.55;;;20.40;1.00;;;;;;5031459;28;20450;-72
2023/08/05 03:26:53;;;;;;;5.45;4.07;;;20.40;1.00;;;;;;5033158;28;20116;-71
2023/08/05 03:29:18;;;;;;;5.10;3.58;;;20.40;1.00;;;;;;5031944;28;20729;-72
2023/08/05 03:31:44;;;;;;;7.07;4.00;;;20.40;1.00;;;;;;5032452;28;20468;-72
2023/08/05 03:34:09;;;;;;;6.45;3.58;;;20.40;1.00;;;;;;5030925;28;20459;-72
2023/08/05 03:36:36;;;;;;;5.68;3.80;;;20.40;1.00;;;;;;5030974;28;20383;-72
2023/08/05 03:39:02;;;;;;;6.50;4.30;;;20.50;1.00;;;;;;5031326;28;20056;-72
2023/08/05 03:41:28;;;;;;;8.68;4.43;;;20.60;99.90;;;;;;5031400;28;20068;-72
2023/08/05 03:43:54;;;;;;;5.65;4.32;;;20.60;99.90;;;;;;5031066;28;20065;-72
2023/08/05 03:46:20;;;;;;;5.63;4.13;;;20.50;1.00;;;;;;5032562;28;20029;-72
2023/08/05 03:48:48;;;;;;;7.03;5.43;;;20.30;1.00;;;;;;5035197;28;20104;-71
2023/08/05 03:51:15;;;;;;;10.20;4.75;;;20.40;1.00;;;;;;5030479;28;20026;-72
2023/08/05 03:53:41;;;;;;;6.45;4.10;;;20.40;1.00;;;;;;5030789;28;20104;-71
2023/08/05 03:56:07;;;;;;;6.90;4.28;;;20.40;1.00;;;;;;5032833;28;20130;-71
2023/08/05 03:58:32;;;;;;;8.13;4.15;;;20.50;1.00;;;;;;5030567;28;20045;-72
2023/08/05 04:01:00;;;;;;;6.78;4.03;;;20.60;99.90;;;;;;5032657;28;20065;-72
2023/08/05 04:03:26;;;;;;;5.03;3.95;;;20.50;99.90;;;;;;5029879;28;20534;-72
2023/08/05 04:05:52;;;;;;;5.32;4.20;;;20.60;99.90;;;;;;5030186;28;20034;-72
2023/08/05 04:08:18;;;;;;;6.75;3.53;;;20.60;99.90;;;;;;5031543;28;20124;-72
2023/08/05 04:10:43;;;;;;;7.25;4.10;;;20.70;99.90;;;;;;5031087;28;20029;-73
2023/08/05 04:13:11;;;;;;;6.88;4.43;;;20.70;99.90;;;;;;5031582;28;20042;-71
2023/08/05 04:15:37;;;;;;;6.32;4.82;;;20.70;99.90;;;;;;5031303;28;20100;-72
2023/08/05 04:18:04;;;;;;;9.45;5.78;;;20.60;1.00;;;;;;5031317;28;20060;-73
2023/08/05 04:20:31;;;;;;;11.82;6.10;;;20.50;1.00;;;;;;5032354;28;20107;-71
2023/08/05 04:22:57;;;;;;;8.00;5.70;;;20.60;1.00;;;;;;5030382;28;20044;-72
2023/08/05 04:25:24;;;;;;;10.05;5.80;;;20.60;1.00;;;;;;5029865;28;20045;-72
2023/08/05 04:27:49;;;;;;;8.00;5.35;;;20.60;1.00;;;;;;5022576;28;20057;-71
2023/08/05 04:30:18;;;;;;;9.05;6.15;;;20.50;1.00;;;;;;5032225;28;20045;-72
2023/08/05 04:32:44;;;;;;;8.75;5.93;;;20.60;1.00;;;;;;5031386;28;20033;-72
2023/08/05 04:35:09;;;;;;;9.73;6.30;;;20.50;1.00;;;;;;5030426;28;20063;-72
2023/08/05 04:37:35;;;;;;;6.32;5.43;;;20.60;1.00;;;;;;5035815;28;20030;-72
2023/08/05 04:40:01;;;;;;;7.60;5.85;;;20.50;1.00;;;;;;5033983;28;20468;-71
2023/08/05 04:42:26;;;;;;;10.07;5.70;;;20.50;1.00;;;;;;5035549;28;20497;-72
2023/08/05 04:44:52;;;;;;;6.90;6.10;;;20.40;1.00;;;;;;5034259;28;20391;-71
2023/08/05 04:47:18;;;;;;;7.78;5.45;;;20.30;1.00;;;;;;5035453;28;20498;-72
2023/08/05 04:49:44;;;;;;;8.65;5.68;;;20.40;1.00;;;;;;5033060;28;20025;-72
2023/08/05 04:52:12;;;;;;;8.45;5.57;;;20.30;1.00;;;;;;5035537;28;20040;-71
2023/08/05 04:54:43;;;;;;;9.25;5.93;;;20.30;1.00;;;;;;5032792;28;20437;-72
2023/08/05 04:57:09;;;;;;;9.48;5.35;;;20.30;1.00;;;;;;5035599;28;20395;-72
2023/08/05 04:59:35;;;;;;;8.00;5.65;;;20.30;1.00;;;;;;5031182;28;20060;-71
2023/08/05 05:02:01;;;;;;;8.63;6.32;;;20.40;1.00;;;;;;5035372;28;20547;-71
2023/08/05 05:04:27;;;;;;;6.65;5.90;;;20.30;1.00;;;;;;5032121;28;20037;-72
2023/08/05 05:06:53;;;;;;;7.82;5.90;;;20.10;1.00;;;;;;5034596;28;20041;-71
2023/08/05 05:09:19;;;;;;;7.50;5.28;;;20.20;1.00;;;;;;5034348;28;20383;-72
2023/08/05 05:11:44;;;;;;;8.85;5.63;;;20.30;1.00;;;;;;5035161;28;20028;-72
2023/08/05 05:14:10;;;;;;;8.18;5.40;;;20.20;1.00;;;;;;5035075;28;20037;-72
2023/08/05 05:16:36;;;;;;;10.18;6.82;;;20.20;1.00;;;;;;5032679;28;20105;-72
2023/08/05 05:19:01;;;;;;;9.48;6.22;;;20.00;1.00;;;;;;5033829;28;20065;-71
2023/08/05 05:21:27;;;;;;;7.53;6.50;;;20.00;1.00;;;;;;5033483;28;20029;-72
2023/08/05 05:23:53;;;;;;;7.90;5.97;;;20.20;1.00;;;;;;5033743;28;20383;-72
2023/08/05 05:26:18;;;;;;;8.57;6.60;;;20.30;1.00;;;;;;5035988;28;20037;-72
2023/08/05 05:28:44;;;;;;;7.07;6.38;;;20.20;1.00;;;;;;5046929;28;20036;-71
2023/08/05 05:31:09;;;;;;;14.00;6.97;;;20.10;1.00;;;;;;5031276;28;20029;-72
2023/08/05 05:33:36;;;;;;;9.77;6.13;;;20.10;1.00;;;;;;5028375;28;20031;-71
2023/08/05 05:36:01;;;;;;;9.45;6.75;;;20.20;1.00;;;;;;5032291;28;20044;-71
2023/08/05 05:38:27;;;;;;;9.68;7.18;;;20.00;1.00;;;;;;5033854;28;20025;-72
2023/08/05 05:40:56;;;;;;;10.02;7.38;;;20.00;1.00;;;;;;5032844;28;20044;-72
2023/08/05 05:43:22;;;;;;;10.13;6.95;;;20.10;1.00;;;;;;5033798;28;20108;-71
2023/08/05 05:45:52;;;;;;;11.35;7.20;;;20.10;1.00;;;;;;5033448;28;20034;-72
2023/08/05 05:48:18;;;;;;;10.13;7.40;;;20.10;1.00;;;;;;5027618;28;20076;-72
2023/08/05 05:50:43;;;;;;;11.45;7.15;;;20.00;1.00;;;;;;5031962;28;20398;-71
2023/08/05 05:53:13;;;;;;;9.43;7.10;;;20.00;1.00;;;;;;5033658;28;20087;-72
2023/08/05 05:55:41;;;;;;;10.07;7.30;;;20.10;1.00;;;;;;5034532;28;20042;-72
2023/08/05 05:58:07;;;;;;;8.90;6.47;;;20.10;1.00;;;;;;5033404;28;20022;-72
2023/08/05 06:00:33;;;;;;;11.45;7.60;;;20.10;1.00;;;;;;5033733;28;20060;-72
2023/08/05 06:03:25;;;;;;;11.40;7.47;;;19.80;1.00;;;;;;5030848;28;20028;-72
2023/08/05 06:05:50;;;;;;;10.52;7.97;;;19.90;1.00;;;;;;5029825;28;20029;-72
2023/08/05 06:08:16;;;;;;;10.88;8.45;;;19.90;1.00;;;;;;5021010;28;20030;-72
2023/08/05 06:10:42;;;;;;;10.15;8.20;;;19.90;1.00;;;;;;5032669;28;20034;-72
2023/08/05 06:13:08;;;;;;;9.18;8.18;;;19.90;1.00;;;;;;5032773;28;20029;-71
2023/08/05 06:15:40;;;;;;;10.27;8.60;;;19.70;1.00;;;;;;5028713;28;20022;-72
2023/08/05 06:18:08;;;;;;;11.10;8.55;;;19.90;1.00;;;;;;5033644;28;20017;-72
2023/08/05 06:20:33;;;;;;;12.90;8.93;;;19.90;1.00;;;;;;5031699;28;20122;-72
2023/08/05 06:22:59;;;;;;;9.60;8.60;;;20.10;1.00;;;;;;5029339;28;20073;-72
2023/08/05 06:25:25;;;;;;;10.57;8.50;;;20.00;1.00;;;;;;5032563;28;20429;-72
2023/08/05 06:27:50;;;;;;;10.95;8.45;;;20.10;1.00;;;;;;5033538;28;20030;-72
2023/08/05 06:30:16;;;;;;;11.75;8.20;;;20.20;1.00;;;;;;5032781;28;20120;-72
2023/08/05 06:32:41;;;;;;;12.80;9.07;;;20.10;1.00;;;;;;5031988;28;20097;-72
2023/08/05 06:35:07;;;;;;;10.15;8.38;;;20.00;1.00;;;;;;5033548;28;20096;-72
2023/08/05 06:37:33;;;;;;;13.20;8.63;;;20.20;1.00;;;;;;5032599;28;20068;-72
2023/08/05 06:39:59;;;;;;;13.73;9.02;;;20.30;1.00;;;;;;5032095;28;20079;-72
2023/08/05 06:42:25;;;;;;;13.05;10.30;;;20.10;1.00;;;;;;5031459;28;20037;-72
2023/08/05 06:44:52;;;;;;;14.57;10.15;;;20.10;1.00;;;;;;5032475;28;20379;-72
2023/08/05 06:47:21;;;;;;;13.98;9.90;;;20.40;1.00;;;;;;5032785;28;20037;-72
2023/08/05 06:49:47;;;;;;;11.98;10.43;;;20.40;1.00;;;;;;5031557;28;20044;-73
2023/08/05 06:52:13;;;;;;;14.57;11.98;;;20.60;1.00;;;;;;5033199;28;20483;-72
2023/08/05 06:54:38;;;;;;;14.45;12.75;;;20.50;1.00;;;;;;5032379;28;20022;-72
2023/08/05 06:57:04;;;;;;;20.42;17.98;;;20.50;1.00;;;;;;5030366;28;20025;-72
2023/08/05 06:59:30;;;;;;;26.02;21.75;;;20.50;1.00;;;;;;5030622;28;20041;-72
2023/08/05 07:01:56;;;;;;;24.88;22.15;;;20.60;1.00;;;;;;5033083;28;20120;-72
2023/08/05 07:04:22;;;;;;;24.10;20.75;;;20.50;1.00;;;;;;5029250;28;20479;-71
2023/08/05 07:06:47;;;;;;;23.25;20.08;;;20.60;1.00;;;;;;5030713;28;20113;-72
2023/08/05 07:09:13;;;;;;;24.05;20.85;;;20.70;1.00;;;;;;5015307;28;20033;-72
2023/08/05 07:11:38;;;;;;;24.20;21.52;;;20.70;1.00;;;;;;5031101;28;20022;-71
2023/08/05 07:14:04;;;;;;;22.10;20.00;;;20.80;1.00;;;;;;5029587;28;20129;-73
2023/08/05 07:16:36;;;;;;;23.83;20.30;;;20.90;1.00;;;;;;5031809;28;20029;-72
2023/08/05 07:19:01;;;;;;;21.40;16.83;;;20.70;1.00;;;;;;5031516;28;20084;-72
2023/08/05 07:21:27;;;;;;;17.98;14.75;;;20.70;1.00;;;;;;5032834;28;20476;-72
2023/08/05 07:23:53;;;;;;;16.67;12.43;;;20.50;1.00;;;;;;5030109;28;20057;-72
2023/08/05 07:26:18;;;;;;;12.80;11.50;;;20.50;1.00;;;;;;5031883;28;20124;-72
2023/08/05 07:28:44;;;;;;;13.07;11.23;;;20.70;1.00;;;;;;5031404;28;20028;-72
2023/08/05 07:31:10;;;;;;;11.95;10.75;;;20.90;1.00;;;;;;5032756;28;20043;-72
2023/08/05 07:33:37;;;;;;;15.75;11.27;;;20.80;1.00;;;;;;5031019;28;20033;-72
2023/08/05 07:36:15;;;;;;;13.07;10.43;;;20.80;1.00;;;;;;5024828;28;20033;-72
2023/08/05 07:38:42;;;;;;;11.63;10.25;;;20.90;1.00;;;;;;5031254;28;20505;-71
2023/08/05 07:41:08;;;;;;;12.77;10.38;;;21.00;1.00;;;;;;5032601;28;20069;-72
2023/08/05 07:43:50;;;;;;;13.32;9.73;;;20.90;1.00;;;;;;5030742;28;20030;-72
2023/08/05 07:46:16;;;;;;;12.50;11.15;;;21.00;1.00;;;;;;5032724;28;20037;-72
2023/08/05 07:48:45;;;;;;;11.77;10.23;;;20.90;1.00;;;;;;5029948;28;20025;-72
2023/08/05 07:51:11;;;;;;;12.02;10.00;;;20.90;1.00;;;;;;5032309;28;20075;-72
2023/08/05 07:53:37;;;;;;;11.15;9.63;;;20.80;1.00;;;;;;5030843;28;20021;-72
2023/08/05 07:56:12;;;;;;;14.38;10.85;;;21.10;1.00;;;;;;5028294;28;20383;-73
2023/08/05 07:58:48;;;;;;;12.02;10.45;;;21.20;1.00;;;;;;5028425;28;20148;-72
2023/08/05 08:01:19;;;;;;;11.75;10.25;;;21.30;1.00;;;;;;5034725;28;20048;-72
2023/08/05 08:03:45;;;;;;;12.70;10.27;;;21.30;1.00;;;;;;5031970;28;20049;-73
2023/08/05 08:06:15;;;;;;;11.55;10.02;;;21.50;99.90;;;;;;5032234;28;20029;-72
2023/08/05 08:08:41;;;;;;;12.73;9.95;;;21.70;99.90;;;;;;5031785;28;20049;-72
2023/08/05 08:11:07;;;;;;;11.50;10.40;;;21.70;99.90;;;;;;5034266;28;20029;-71
2023/08/05 08:13:32;;;;;;;13.82;11.50;;;21.40;99.90;;;;;;5033419;28;20034;-71
2023/08/05 08:15:58;;;;;;;16.52;10.82;;;21.50;99.90;;;;;;5034447;28;20045;-72
2023/08/05 08:18:24;;;;;;;12.43;10.75;;;21.40;99.90;;;;;;5036297;28;20471;-72
2023/08/05 08:20:52;;;;;;;12.40;9.82;;;21.50;99.90;;;;;;5034515;28;20491;-72
2023/08/05 08:23:18;;;;;;;16.88;10.63;;;21.50;99.90;;;;;;5036098;28;20029;-72
2023/08/05 08:25:44;;;;;;;13.02;10.13;;;21.50;99.90;;;;;;5033669;28;20413;-72
2023/08/05 08:28:10;;;;;;;12.27;10.02;;;21.60;99.90;;;;;;5033844;28;20506;-72
2023/08/05 08:30:35;;;;;;;14.85;10.23;;;21.60;99.90;;;;;;5033838;28;20034;-72
2023/08/05 08:33:03;;;;;;;11.38;8.50;;;21.50;99.90;;;;;;5036116;28;20033;-72
2023/08/05 08:35:29;;;;;;;11.68;10.52;;;21.60;99.90;;;;;;5033897;28;20029;-71
2023/08/05 08:37:55;;;;;;;10.75;9.68;;;21.80;99.90;;;;;;5035756;28;20466;-71
2023/08/05 08:40:21;;;;;;;15.85;11.05;;;21.90;99.90;;;;;;5031463;28;20116;-72
2023/08/05 08:42:49;;;;;;;10.00;9.00;;;22.00;99.90;;;;;;5034761;28;20036;-73
2023/08/05 08:45:17;;;;;;;11.95;9.57;;;22.10;99.90;;;;;;5031594;28;20057;-72
2023/08/05 08:47:46;;;;;;;14.18;9.80;;;22.30;99.90;;;;;;5030579;28;20037;-72
2023/08/05 08:50:13;;;;;;;12.50;10.20;;;22.40;99.90;;;;;;5035225;28;20033;-73
2023/08/05 08:52:41;;;;;;;9.93;8.55;;;22.50;99.90;;;;;;5035359;28;20037;-73
2023/08/05 08:55:08;;;;;;;14.15;9.68;;;22.70;99.90;;;;;;5033527;28;20104;-72
2023/08/05 08:57:34;;;;;;;12.70;9.95;;;22.70;99.90;;;;;;5034887;28;20056;-72
2023/08/05 09:00:00;;;;;;;13.27;9.93;;;22.80;99.90;;;;;;5032468;28;20448;-73
2023/08/05 09:02:26;;;;;;;14.48;10.38;;;22.90;99.90;;;;;;5034457;28;20513;-73
2023/08/05 09:04:53;;;;;;;11.13;10.00;;;23.10;99.90;;;;;;5034213;28;20029;-74
2023/08/05 09:07:25;;;;;;;13.02;10.18;;;23.40;99.90;;;;;;5034506;28;20055;-73
2023/08/05 09:09:51;;;;;;;11.60;9.85;;;23.50;99.90;;;;;;5033321;28;20041;-73
2023/08/05 09:12:17;;;;;;;10.15;8.75;;;23.60;99.90;;;;;;5034001;28;20037;-73
2023/08/05 09:14:43;;;;;;;10.57;8.95;;;23.80;99.90;;;;;;5033552;28;20403;-73
2023/08/05 09:17:12;;;;;;;13.00;9.23;;;23.80;99.90;;;;;;5034986;28;20029;-73
2023/08/05 09:19:42;;;;;;;9.55;8.05;;;23.80;99.90;;;;;;5029504;28;20095;-73
2023/08/05 09:22:08;;;;;;;22.38;10.57;;;23.80;99.90;;;;;;5034320;28;20038;-74
2023/08/05 09:24:34;;;;;;;11.50;8.35;;;23.90;99.90;;;;;;5033569;28;20028;-73
2023/08/05 09:27:00;;;;;;;9.25;8.15;;;24.00;99.90;;;;;;5034243;28;20450;-73
2023/08/05 09:29:28;;;;;;;10.90;8.13;;;24.00;99.90;;;;;;5033831;28;20029;-72
2023/08/05 09:31:54;;;;;;;8.70;7.15;;;24.10;99.90;;;;;;5024031;28;20044;-72
2023/08/05 09:34:20;;;;;;;9.10;8.07;;;24.10;99.90;;;;;;5033066;28;20395;-72
2023/08/05 09:36:46;;;;;;;10.95;8.07;;;23.90;99.90;;;;;;5025341;28;20039;-73
2023/08/05 09:39:15;;;;;;;9.18;6.95;;;23.90;99.90;;;;;;5034017;28;20021;-73
2023/08/05 09:41:50;;;;;;;9.80;6.00;;;23.80;99.90;;;;;;5034460;28;20520;-73
2023/08/05 09:44:16;;;;;;;7.47;5.75;;;23.70;99.90;;;;;;5032113;28;20104;-73
2023/08/05 09:46:41;;;;;;;8.30;5.47;;;23.70;99.90;;;;;;5034623;28;20049;-73
2023/08/05 09:49:08;;;;;;;6.32;4.72;;;23.70;99.90;;;;;;5034198;28;20052;-73
2023/08/05 09:51:35;;;;;;;9.85;5.53;;;23.70;99.90;;;;;;5034377;28;20029;-73
2023/08/05 09:54:03;;;;;;;6.28;4.97;;;23.80;99.90;;;;;;5032874;28;20033;-73
2023/08/05 09:56:31;;;;;;;8.68;4.32;;;23.80;99.90;;;;;;5034194;28;20048;-72
2023/08/05 09:58:56;;;;;;;6.72;4.40;;;23.90;99.90;;;;;;5031473;28;20507;-74
2023/08/05 10:01:22;;;;;;;6.40;4.30;;;24.00;99.90;;;;;;5034278;28;20073;-73
2023/08/05 10:03:49;;;;;;;6.82;4.88;;;24.10;99.90;;;;;;5029810;28;20017;-73
2023/08/05 10:06:15;;;;;;;8.27;5.15;;;24.10;99.90;;;;;;5026304;28;20025;-73
2023/08/05 10:08:42;;;;;;;5.72;5.15;;;24.10;99.90;;;;;;5023111;28;20029;-73
2023/08/05 10:11:08;;;;;;;6.90;4.57;;;24.00;99.90;;;;;;5034201;28;20044;-73
2023/08/05 10:13:40;;;;;;;6.72;4.45;;;24.10;99.90;;;;;;5031215;28;20537;-73
2023/08/05 10:16:08;;;;;;;6.75;4.57;;;24.20;99.90;;;;;;5034125;28;20407;-72
2023/08/05 10:18:35;;;;;;;6.95;4.93;;;24.30;99.90;;;;;;5032062;28;20107;-73
2023/08/05 10:21:05;;;;;;;7.00;5.20;;;24.40;99.90;;;;;;5046985;28;20037;-73
2023/08/05 10:23:35;;;;;;;7.25;4.43;;;24.40;99.90;;;;;;5033523;28;20552;-73
2023/08/05 10:26:05;;;;;;;6.32;4.50;;;24.50;99.90;;;;;;5031026;28;20036;-73
2023/08/05 10:28:33;;;;;;;7.18;5.30;;;24.60;99.90;;;;;;5032391;28;20360;-73
2023/08/05 10:31:03;;;;;;;5.95;5.05;;;24.60;99.90;;;;;;5034704;28;20406;-73
2023/08/05 10:33:29;;;;;;;6.28;4.38;;;24.60;99.90;;;;;;5031867;28;20045;-73
2023/08/05 10:36:03;;;;;;;7.40;4.40;;;24.70;99.90;;;;;;5032143;28;20060;-74
2023/08/05 10:38:41;;;;;;;5.65;4.22;;;24.80;99.90;;;;;;5030958;28;20036;-74
2023/08/05 10:41:07;;;;;;;4.97;4.35;;;24.80;99.90;;;;;;5033439;28;20091;-72
2023/08/05 10:43:40;;;;;;;7.75;5.50;;;24.80;99.90;;;;;;5037146;28;20029;-73
2023/08/05 10:46:06;;;;;;;8.13;5.00;;;24.90;99.90;;;;;;5033105;28;20030;-74
2023/08/05 10:48:50;;;;;;;7.15;5.35;;;25.00;99.90;;;;;;5033291;28;20033;-72
2023/08/05 10:51:20;;;;;;;;;;;25.00;99.90;;;;;;5033349;28;20052;-73
2023/08/05 10:54:07;;;;;;;5.47;4.32;;;25.00;99.90;;;;;;5031301;28;19932;-73
2023/08/05 10:56:34;;;;;;;4.30;3.88;;;25.10;99.90;;;;;;5033340;28;20456;-74
2023/08/05 10:59:01;;;;;;;6.50;3.70;;;25.30;99.90;;;;;;5032358;28;20041;-73
2023/08/05 11:01:55;;;;;;;6.13;4.35;;;25.30;99.90;;;;;;5033357;28;20394;-73
2023/08/05 11:04:28;;;;;;;4.65;3.47;;;25.20;99.90;;;;;;5030703;28;20041;-73
2023/08/05 11:06:54;;;;;;;4.35;3.50;;;25.40;99.90;;;;;;5033168;28;20506;-73
2023/08/05 11:09:21;;;;;;;7.35;3.08;;;25.40;99.90;;;;;;5019980;28;20049;-73
2023/08/05 11:11:48;;;;;;;5.40;3.08;;;25.60;99.90;;;;;;5033296;28;20052;-73
2023/08/05 11:14:16;;;;;;;6.40;3.50;;;25.70;99.90;;;;;;5031135;28;20518;-73
2023/08/05 11:16:48;;;;;;;4.20;3.35;;;25.70;99.90;;;;;;5033319;28;20036;-74
2023/08/05 11:19:15;;;;;;;4.68;3.47;;;25.90;99.90;;;;;;5032583;28;20077;-73
2023/08/05 11:21:45;;;;;;;4.05;3.35;;;26.00;99.90;;;;;;5032328;28;20121;-74
2023/08/05 11:24:17;;;;;;;3.58;2.83;;;25.90;99.90;;;;;;5033062;28;20471;-74
2023/08/05 11:26:43;;;;;;;6.85;2.85;;;26.10;99.90;;;;;;5031095;28;20398;-74
2023/08/05 11:29:09;;;;;;;6.20;3.35;;;26.10;99.90;;;;;;5024668;28;20022;-74
2023/08/05 11:31:35;;;;;;;4.57;2.90;;;26.20;99.90;;;;;;5061333;28;20072;-74
2023/08/05 11:34:01;;;;;;;6.70;3.10;;;26.50;99.90;;;;;;5030501;28;20380;-74
2023/08/05 11:36:28;;;;;;;7.22;3.55;;;26.40;99.90;;;;;;5032152;28;20057;-74
2023/08/05 11:38:59;;;;;;;4.15;3.20;;;26.50;99.90;;;;;;5031301;28;20038;-74
2023/08/05 11:41:26;;;;;;;4.43;3.17;;;26.80;99.90;;;;;;5032940;28;20083;-74
2023/08/05 11:43:52;;;;;;;3.33;3.03;;;26.90;99.90;;;;;;5030848;28;20030;-74
2023/08/05 11:46:38;;;;;;;6.57;3.35;;;;;;;;;;5030727;28;20479;-74
2023/08/05 11:49:09;;;;;;;5.88;3.10;;;;;;;;;;5026801;28;20028;-74
2023/08/05 11:51:47;;;;;;;6.18;2.38;;;;;;;;;;5034877;28;20033;-73
2023/08/05 11:54:13;;;;;;;5.88;2.78;;;;;;;;;;5030455;28;20498;-74
2023/08/05 11:56:39;;;;;;;3.10;2.50;;;;;;;;;;5036883;28;20025;-74
2023/08/05 11:59:05;;;;;;;3.53;3.17;;;;;;;;;;5035724;28;20045;-73
2023/08/05 12:01:36;;;;;;;3.65;3.28;;;;;;;;;;5036416;28;20091;-73
2023/08/05 12:04:06;;;;;;;4.30;2.90;;;;;;;;;;5028761;28;20056;-74
2023/08/05 12:06:32;;;;;;;3.95;3.50;;;;;;;;;;5031222;28;20044;-72
2023/08/05 12:09:00;;;;;;;3.60;3.13;;;;;;;;;;5035092;28;20105;-72
2023/08/05 12:11:26;;;;;;;4.45;3.10;;;;;;;;;;5035920;28;20041;-72
2023/08/05 12:13:52;;;;;;;3.55;3.15;;;;;;;;;;5034222;28;20417;-72
2023/08/05 12:16:18;;;;;;;3.72;2.90;;;;;;;;;;5036130;28;20087;-71
2023/08/05 12:18:44;;;;;;;3.60;3.17;;;;;;;;;;5035294;28;20030;-72
2023/08/05 12:21:11;;;;;;;3.30;2.97;;;;;;;;;;5035323;28;20384;-72
2023/08/05 12:23:43;;;;;;;4.32;3.67;;;;;;;;;;5033895;28;20033;-72
2023/08/05 12:26:09;;;;;;;4.32;3.55;;;;;;;;;;5030361;28;20041;-71
2023/08/05 12:28:36;;;;;;;4.47;3.47;;;;;;;;;;5033396;28;20120;-72
2023/08/05 12:31:03;;;;;;;3.83;3.50;;;;;;;;;;5035386;28;20395;-71
2023/08/05 12:33:29;;;;;;;7.60;3.38;;;;;;;;;;5033952;28;20437;-72
2023/08/05 12:35:55;;;;;;;4.75;3.28;;;;;;;;;;5035361;28;20037;-72
2023/08/05 12:38:21;;;;;;;3.67;2.95;;;;;;;;;;5045739;28;20021;-72
2023/08/05 12:40:47;;;;;;;3.30;3.00;;;;;;;;;;5034502;28;20075;-72
2023/08/05 12:43:13;;;;;;;4.40;3.10;;;;;;;;;;5049566;28;20471;-71
2023/08/05 12:45:39;;;;;;;3.58;3.38;;;34.80;99.90;;;;;;5033036;28;20487;-71
2023/08/05 12:48:05;;;;;;;3.20;3.00;;;;;;;;;;5032097;28;20064;-72
2023/08/05 12:50:31;;;;;;;3.50;3.30;;;;;;;;;;5043641;28;20082;-72
2023/08/05 12:53:00;;;;;;;3.05;2.85;;;;;;;;;;5040353;28;20057;-72
2023/08/05 12:55:26;;;;;;;3.30;2.67;;;;;;;;;;5034750;28;20034;-72
2023/08/05 12:57:52;;;;;;;2.78;2.67;;;;;;;;;;5032757;28;20028;-72